createdAt,value
2018-08-31T00:01:27.226Z,85.16
2018-08-31T00:04:39.467Z,85.38
2018-08-31T00:07:33.300Z,85.33
2018-08-31T00:12:50.954Z,85.23
2018-08-31T00:15:19.838Z,85.16
2018-08-31T00:17:48.683Z,85.62
2018-08-31T00:20:17.463Z,85.39
2018-08-31T00:22:46.291Z,85.40
2018-08-31T00:26:03.300Z,85.30
2018-08-31T00:28:50.054Z,85.70
2018-08-31T00:32:01.948Z,85.74
2018-08-31T00:34:53.570Z,85.50
2018-08-31T00:37:41.375Z,84.77
2018-08-31T00:40:46.616Z,85.72
2018-08-31T00:43:54.064Z,86.28
2018-08-31T00:46:23.210Z,85.99
2018-08-31T00:48:52.339Z,86.09
2018-08-31T00:51:21.226Z,85.92
2018-08-31T00:53:50.080Z,86.45
2018-08-31T00:56:18.866Z,86.64
2018-08-31T00:58:47.728Z,86.44
2018-08-31T01:01:16.509Z,85.34
2018-08-31T01:03:45.571Z,86.34
2018-08-31T01:06:14.373Z,86.35
2018-08-31T01:08:43.205Z,86.63
2018-08-31T01:11:12.106Z,86.59
2018-08-31T01:13:41.054Z,87.00
2018-08-31T01:16:09.935Z,87.40
2018-08-31T01:18:38.760Z,87.36
2018-08-31T01:21:07.636Z,86.89
2018-08-31T01:23:36.444Z,87.14
2018-08-31T01:26:05.315Z,87.00
2018-08-31T01:28:34.212Z,87.06
2018-08-31T01:31:03.199Z,89.00
2018-08-31T01:33:31.993Z,87.91
2018-08-31T01:36:01.202Z,86.83
2018-08-31T01:38:30.008Z,88.75
2018-08-31T01:40:58.908Z,87.94
2018-08-31T01:43:27.681Z,88.23
2018-08-31T01:45:56.564Z,87.60
2018-08-31T01:48:25.427Z,87.45
2018-08-31T01:50:59.702Z,87.81
2018-08-31T01:53:28.876Z,88.02
2018-08-31T01:55:57.697Z,88.15
2018-08-31T01:58:26.535Z,88.15
2018-08-31T02:00:55.720Z,88.45
2018-08-31T02:03:24.525Z,88.90
2018-08-31T02:05:53.427Z,89.03
2018-08-31T02:08:22.256Z,88.69
2018-08-31T02:10:51.068Z,88.94
2018-08-31T02:13:19.959Z,89.38
2018-08-31T02:15:48.775Z,88.57
2018-08-31T02:18:17.671Z,88.95
2018-08-31T02:20:46.430Z,88.99
2018-08-31T02:23:15.570Z,89.04
2018-08-31T02:25:44.385Z,88.62
2018-08-31T02:28:13.218Z,88.51
2018-08-31T02:30:42.120Z,88.84
2018-08-31T02:33:10.972Z,88.82
2018-08-31T02:35:39.752Z,89.57
2018-08-31T02:38:08.810Z,88.67
2018-08-31T02:40:37.613Z,89.95
2018-08-31T02:43:06.564Z,89.66
2018-08-31T02:45:35.448Z,89.87
2018-08-31T02:48:04.288Z,90.22
2018-08-31T02:50:33.120Z,90.61
2018-08-31T02:53:02.012Z,90.49
2018-08-31T02:55:31.095Z,90.49
2018-08-31T02:57:59.931Z,90.54
2018-08-31T03:00:28.715Z,90.40
2018-08-31T03:02:57.556Z,89.72
2018-08-31T03:05:26.381Z,90.22
2018-08-31T03:07:55.339Z,90.62
2018-08-31T03:10:24.145Z,89.88
2018-08-31T03:12:52.963Z,89.49
2018-08-31T03:15:21.783Z,89.69
2018-08-31T03:17:50.573Z,89.97
2018-08-31T03:20:19.576Z,90.39
2018-08-31T03:22:48.360Z,90.42
2018-08-31T03:25:17.160Z,90.27
2018-08-31T03:27:45.964Z,90.05
2018-08-31T03:30:14.832Z,89.98
2018-08-31T03:32:43.680Z,89.73
2018-08-31T03:35:12.900Z,90.01
2018-08-31T03:37:41.690Z,89.80
2018-08-31T03:40:10.569Z,89.59
2018-08-31T03:42:39.443Z,89.40
2018-08-31T03:45:08.437Z,89.83
2018-08-31T03:47:37.318Z,90.10
2018-08-31T03:50:06.600Z,90.54
2018-08-31T03:52:35.411Z,91.41
2018-08-31T03:55:04.486Z,91.84
2018-08-31T03:57:33.400Z,90.47
2018-08-31T04:00:02.327Z,90.61
2018-08-31T04:02:31.092Z,91.31
2018-08-31T04:05:00.000Z,92.02
2018-08-31T04:07:28.805Z,92.82
2018-08-31T04:09:57.979Z,92.91
2018-08-31T04:12:26.786Z,93.14
2018-08-31T04:14:55.618Z,92.97
2018-08-31T04:17:24.525Z,92.39
2018-08-31T04:19:53.359Z,92.28
2018-08-31T04:22:22.323Z,92.48
2018-08-31T04:24:51.189Z,92.49
2018-08-31T04:27:20.018Z,91.94
2018-08-31T04:29:48.888Z,90.33
2018-08-31T04:32:17.734Z,90.81
2018-08-31T04:34:46.589Z,91.04
2018-08-31T04:37:15.548Z,91.09
2018-08-31T04:39:44.312Z,91.45
2018-08-31T04:42:13.126Z,90.79
2018-08-31T04:44:41.888Z,89.95
2018-08-31T04:47:10.840Z,89.34
2018-08-31T04:49:39.786Z,89.49
2018-08-31T04:52:08.644Z,90.94
2018-08-31T04:54:37.424Z,89.70
2018-08-31T04:57:06.253Z,90.49
2018-08-31T04:59:35.176Z,90.89
2018-08-31T05:02:04.149Z,91.13
2018-08-31T05:04:32.935Z,91.05
2018-08-31T05:07:01.728Z,90.76
2018-08-31T05:09:30.522Z,90.07
2018-08-31T05:11:59.527Z,90.40
2018-08-31T05:14:28.362Z,90.77
2018-08-31T05:16:57.120Z,90.07
2018-08-31T05:19:26.214Z,89.85
2018-08-31T05:21:54.988Z,89.96
2018-08-31T05:24:23.907Z,89.59
2018-08-31T05:26:52.724Z,88.72
2018-08-31T05:29:21.667Z,88.91
2018-08-31T05:31:50.497Z,89.20
2018-08-31T05:34:19.434Z,88.67
2018-08-31T05:36:48.351Z,88.74
2018-08-31T05:39:17.209Z,88.50
2018-08-31T05:41:46.012Z,88.78
2018-08-31T05:44:14.846Z,89.62
2018-08-31T05:46:43.709Z,89.59
2018-08-31T05:49:12.578Z,89.11
2018-08-31T05:51:41.342Z,88.69
2018-08-31T05:54:10.483Z,86.49
2018-08-31T05:56:39.258Z,87.24
2018-08-31T05:59:08.117Z,86.72
2018-08-31T06:01:37.071Z,86.25
2018-08-31T06:04:06.233Z,86.03
2018-08-31T06:06:34.991Z,85.51
2018-08-31T06:09:06.351Z,85.35
2018-08-31T06:11:35.167Z,85.87
2018-08-31T06:14:04.021Z,86.02
2018-08-31T06:16:32.868Z,84.84
2018-08-31T06:19:01.601Z,84.69
2018-08-31T06:21:30.445Z,84.35
2018-08-31T06:23:59.236Z,83.89
2018-08-31T06:26:28.138Z,83.66
2018-08-31T06:28:56.979Z,83.73
2018-08-31T06:31:25.944Z,83.95
2018-08-31T06:33:54.729Z,83.10
2018-08-31T06:36:23.585Z,83.42
2018-08-31T06:38:52.421Z,81.67
2018-08-31T06:41:21.284Z,82.08
2018-08-31T06:43:50.325Z,81.67
2018-08-31T06:46:19.210Z,80.78
2018-08-31T06:48:48.156Z,80.96
2018-08-31T06:51:17.145Z,79.36
2018-08-31T06:53:45.928Z,79.21
2018-08-31T06:56:15.055Z,78.18
2018-08-31T06:58:43.842Z,77.55
2018-08-31T07:01:12.749Z,76.66
2018-08-31T07:03:41.601Z,76.67
2018-08-31T07:06:10.539Z,76.58
2018-08-31T07:08:39.317Z,76.15
2018-08-31T07:11:08.358Z,75.54
2018-08-31T07:13:37.219Z,75.56
2018-08-31T07:16:06.064Z,76.19
2018-08-31T07:18:34.912Z,76.69
2018-08-31T07:21:03.732Z,76.74
2018-08-31T07:23:32.551Z,74.37
2018-08-31T07:26:01.372Z,73.15
2018-08-31T07:28:30.313Z,73.58
2018-08-31T07:30:59.134Z,73.26
2018-08-31T07:33:27.931Z,74.60
2018-08-31T07:35:56.768Z,73.68
2018-08-31T07:38:25.607Z,72.86
2018-08-31T07:40:54.460Z,73.30
2018-08-31T07:43:23.308Z,73.06
2018-08-31T07:45:52.087Z,72.76
2018-08-31T07:48:20.908Z,72.99
2018-08-31T07:50:49.696Z,72.28
2018-08-31T07:53:18.588Z,72.24
2018-08-31T07:55:47.396Z,71.40
2018-08-31T07:58:16.279Z,72.50
2018-08-31T08:00:45.102Z,73.05
2018-08-31T08:03:13.924Z,76.10
2018-08-31T08:05:42.870Z,76.59
2018-08-31T08:08:11.695Z,77.02
2018-08-31T08:10:40.488Z,77.04
2018-08-31T08:13:09.555Z,75.13
2018-08-31T08:15:38.355Z,75.30
2018-08-31T08:18:07.505Z,74.97
2018-08-31T08:20:36.412Z,74.52
2018-08-31T08:23:05.267Z,73.97
2018-08-31T08:25:34.132Z,73.94
2018-08-31T08:28:02.945Z,72.87
2018-08-31T08:30:31.887Z,72.42
2018-08-31T08:33:00.672Z,69.49
2018-08-31T08:35:29.527Z,69.71
2018-08-31T08:37:59.235Z,70.03
2018-08-31T08:40:28.068Z,70.24
2018-08-31T08:42:56.933Z,70.74
2018-08-31T08:45:25.786Z,69.68
2018-08-31T08:47:54.586Z,68.43
2018-08-31T08:50:23.424Z,69.90
2018-08-31T08:52:52.213Z,68.80
2018-08-31T08:55:21.138Z,69.24
2018-08-31T08:57:49.928Z,67.03
2018-08-31T09:00:18.905Z,67.11
2018-08-31T09:02:47.734Z,64.75
2018-08-31T09:05:16.569Z,64.21
2018-08-31T09:07:45.440Z,64.33
2018-08-31T09:10:14.275Z,62.82
2018-08-31T09:12:43.167Z,62.35
2018-08-31T09:15:11.988Z,62.48
2018-08-31T09:17:40.919Z,61.86
2018-08-31T09:20:09.917Z,60.19
2018-08-31T09:22:39.052Z,58.96
2018-08-31T09:25:07.849Z,57.36
2018-08-31T09:27:36.718Z,57.31
2018-08-31T09:30:05.779Z,56.82
2018-08-31T09:32:34.734Z,56.93
2018-08-31T09:35:03.659Z,57.10
2018-08-31T09:37:32.463Z,56.37
2018-08-31T09:40:01.259Z,56.91
2018-08-31T09:42:30.114Z,56.78
2018-08-31T09:44:58.995Z,58.97
2018-08-31T09:47:27.839Z,59.58
2018-08-31T09:49:56.622Z,59.72
2018-08-31T09:52:25.463Z,62.72
2018-08-31T09:54:54.243Z,66.03
2018-08-31T09:57:23.197Z,68.07
2018-08-31T09:59:51.980Z,68.36
2018-08-31T10:02:29.148Z,68.05
2018-08-31T10:04:58.427Z,69.20
2018-08-31T10:07:27.342Z,70.84
2018-08-31T10:09:56.133Z,69.15
2018-08-31T10:12:24.986Z,70.35
2018-08-31T10:14:54.112Z,69.14
2018-08-31T10:17:22.944Z,67.11
2018-08-31T10:19:51.908Z,67.08
2018-08-31T10:22:20.792Z,65.25
2018-08-31T10:24:49.595Z,62.66
2018-08-31T10:27:18.746Z,62.67
2018-08-31T10:29:47.559Z,62.89
2018-08-31T10:32:16.624Z,62.86
2018-08-31T10:34:45.476Z,62.46
2018-08-31T10:37:14.264Z,61.41
2018-08-31T10:39:43.087Z,60.85
2018-08-31T10:42:11.850Z,59.78
2018-08-31T10:44:40.753Z,59.36
2018-08-31T10:47:09.545Z,59.35
2018-08-31T10:49:38.397Z,59.57
2018-08-31T10:52:07.323Z,58.87
2018-08-31T10:54:36.230Z,58.59
2018-08-31T10:57:05.079Z,59.06
2018-08-31T10:59:33.936Z,53.52
2018-08-31T11:02:02.844Z,55.60
2018-08-31T11:04:31.672Z,54.00
2018-08-31T11:07:00.479Z,55.57
2018-08-31T11:09:29.387Z,56.24
2018-08-31T11:11:58.159Z,56.13
2018-08-31T11:14:27.000Z,56.76
2018-08-31T11:16:55.777Z,56.35
2018-08-31T11:19:24.607Z,56.17
2018-08-31T11:21:53.485Z,52.90
2018-08-31T11:24:22.332Z,51.69
2018-08-31T11:26:51.132Z,50.72
2018-08-31T11:29:19.956Z,48.73
2018-08-31T11:31:48.836Z,49.59
2018-08-31T11:34:17.812Z,49.72
2018-08-31T11:36:46.680Z,48.26
2018-08-31T11:39:15.491Z,47.41
2018-08-31T11:41:44.311Z,49.85
2018-08-31T11:44:13.169Z,48.14
2018-08-31T11:46:42.075Z,47.33
2018-08-31T11:49:10.871Z,47.82
2018-08-31T11:51:39.746Z,47.06
2018-08-31T11:54:08.532Z,48.83
2018-08-31T11:56:37.374Z,48.31
2018-08-31T11:59:06.271Z,46.85
2018-08-31T12:01:35.123Z,46.51
2018-08-31T12:04:03.967Z,47.32
2018-08-31T12:06:32.808Z,46.88
2018-08-31T12:09:01.608Z,47.75
2018-08-31T12:11:30.529Z,46.07
2018-08-31T12:13:59.379Z,47.69
2018-08-31T12:16:28.172Z,46.06
2018-08-31T12:18:57.022Z,46.16
2018-08-31T12:21:25.882Z,47.23
2018-08-31T12:23:54.796Z,46.83
2018-08-31T12:26:23.591Z,47.43
2018-08-31T12:28:52.394Z,47.68
2018-08-31T12:31:21.232Z,48.32
2018-08-31T12:33:50.041Z,47.30
2018-08-31T12:36:18.867Z,47.76
2018-08-31T12:38:47.683Z,46.15
2018-08-31T12:41:16.502Z,47.52
2018-08-31T12:43:45.422Z,45.52
2018-08-31T12:46:14.163Z,46.11
2018-08-31T12:48:43.116Z,47.32
2018-08-31T12:51:11.951Z,47.27
2018-08-31T12:53:40.789Z,47.28
2018-08-31T12:56:09.732Z,47.76
2018-08-31T12:58:38.531Z,46.28
2018-08-31T13:01:07.441Z,44.52
2018-08-31T13:03:36.287Z,42.36
2018-08-31T13:06:05.179Z,43.67
2018-08-31T13:08:33.951Z,42.62
2018-08-31T13:11:02.861Z,44.43
2018-08-31T13:13:31.683Z,43.46
2018-08-31T13:16:00.596Z,39.08
2018-08-31T13:18:29.404Z,39.64
2018-08-31T13:20:58.359Z,39.96
2018-08-31T13:23:27.252Z,40.50
2018-08-31T13:25:56.383Z,39.20
2018-08-31T13:28:25.281Z,38.16
2018-08-31T13:30:54.164Z,39.33
2018-08-31T13:33:22.931Z,40.06
2018-08-31T13:35:51.780Z,39.88
2018-08-31T13:38:20.660Z,40.68
2018-08-31T13:40:49.504Z,41.21
2018-08-31T13:43:18.564Z,42.04
2018-08-31T13:45:47.453Z,41.04
2018-08-31T13:48:16.235Z,42.44
2018-08-31T13:50:45.233Z,43.58
2018-08-31T13:53:13.993Z,43.24
2018-08-31T13:55:42.769Z,44.14
2018-08-31T13:58:11.628Z,44.08
2018-08-31T14:00:40.382Z,44.24
2018-08-31T14:03:09.248Z,43.71
2018-08-31T14:05:38.011Z,43.64
2018-08-31T14:08:06.975Z,44.58
2018-08-31T14:10:35.787Z,45.45
2018-08-31T14:13:04.667Z,44.07
2018-08-31T14:15:33.478Z,44.95
2018-08-31T14:18:02.312Z,43.80
2018-08-31T14:20:31.118Z,43.33
2018-08-31T14:22:59.935Z,43.07
2018-08-31T14:25:28.752Z,44.61
2018-08-31T14:27:57.765Z,43.72
2018-08-31T14:30:26.576Z,44.54
2018-08-31T14:32:55.413Z,45.43
2018-08-31T14:35:24.181Z,44.86
2018-08-31T14:37:53.155Z,45.44
2018-08-31T14:40:22.041Z,44.92
2018-08-31T14:42:50.863Z,45.27
2018-08-31T14:45:19.893Z,44.60
2018-08-31T14:47:48.792Z,45.33
2018-08-31T14:50:17.575Z,44.98
2018-08-31T14:52:46.487Z,43.79
2018-08-31T14:55:15.385Z,43.17
2018-08-31T14:57:44.163Z,43.63
2018-08-31T15:00:13.075Z,44.27
2018-08-31T15:02:42.007Z,45.04
2018-08-31T15:05:10.899Z,44.29
2018-08-31T15:07:39.644Z,44.01
2018-08-31T15:10:08.584Z,44.12
2018-08-31T15:12:37.367Z,44.34
2018-08-31T15:15:06.608Z,44.00
2018-08-31T15:17:35.400Z,44.54
2018-08-31T15:20:04.387Z,42.78
2018-08-31T15:22:33.207Z,44.88
2018-08-31T15:25:02.097Z,44.20
2018-08-31T15:27:30.828Z,43.88
2018-08-31T15:29:59.761Z,44.32
2018-08-31T15:32:28.536Z,44.13
2018-08-31T15:34:57.336Z,44.05
2018-08-31T15:37:26.144Z,43.48
2018-08-31T15:39:54.945Z,44.86
2018-08-31T15:42:23.862Z,45.10
2018-08-31T15:44:52.655Z,45.95
2018-08-31T15:47:21.424Z,46.70
2018-08-31T15:49:50.378Z,46.45
2018-08-31T15:52:19.041Z,46.17
2018-08-31T15:54:48.119Z,46.51
2018-08-31T15:57:16.964Z,47.10
2018-08-31T15:59:45.750Z,47.84
2018-08-31T16:02:14.557Z,48.52
2018-08-31T16:04:43.352Z,48.98
2018-08-31T16:07:12.342Z,49.16
2018-08-31T16:09:41.117Z,48.52
2018-08-31T16:12:09.984Z,47.80
2018-08-31T16:14:38.766Z,47.99
2018-08-31T16:17:07.588Z,46.76
2018-08-31T16:19:36.444Z,47.78
2018-08-31T16:22:05.328Z,50.18
2018-08-31T16:24:34.100Z,50.99
2018-08-31T16:27:02.964Z,51.11
2018-08-31T16:29:31.738Z,50.29
2018-08-31T16:32:00.758Z,51.35
2018-08-31T16:34:29.515Z,51.63
2018-08-31T16:36:58.331Z,52.20
2018-08-31T16:39:27.108Z,52.44
2018-08-31T16:41:55.963Z,52.65
2018-08-31T16:44:24.813Z,53.18
2018-08-31T16:46:53.708Z,54.16
2018-08-31T16:49:22.476Z,54.17
2018-08-31T16:51:51.299Z,54.00
2018-08-31T16:54:20.082Z,54.54
2018-08-31T16:56:49.492Z,54.47
2018-08-31T16:59:18.514Z,54.61
2018-08-31T17:01:47.288Z,54.63
2018-08-31T17:04:16.184Z,54.80
2018-08-31T17:06:44.971Z,55.02
2018-08-31T17:09:13.911Z,54.96
2018-08-31T17:11:42.694Z,55.04
2018-08-31T17:14:11.507Z,54.96
2018-08-31T17:16:40.287Z,55.55
2018-08-31T17:19:09.235Z,55.99
2018-08-31T17:21:38.106Z,56.20
2018-08-31T17:24:06.953Z,56.89
2018-08-31T17:26:41.347Z,56.83
2018-08-31T17:29:15.828Z,56.53
2018-08-31T17:31:50.292Z,56.89
2018-08-31T17:34:24.617Z,56.97
2018-08-31T17:36:59.041Z,56.61
2018-08-31T17:39:27.915Z,57.74
2018-08-31T17:41:56.815Z,58.18
2018-08-31T17:44:26.249Z,58.31
2018-08-31T17:46:55.215Z,59.18
2018-08-31T17:49:24.780Z,59.53
2018-08-31T17:51:53.634Z,59.87
2018-08-31T17:54:22.534Z,60.28
2018-08-31T17:56:51.699Z,60.98
2018-08-31T17:59:20.551Z,61.65
2018-08-31T18:01:49.319Z,62.08
2018-08-31T18:04:18.198Z,61.76
2018-08-31T18:06:46.977Z,62.49
2018-08-31T18:09:15.746Z,62.52
2018-08-31T18:11:44.563Z,62.41
2018-08-31T18:14:13.415Z,62.59
2018-08-31T18:16:42.297Z,63.08
2018-08-31T18:19:11.043Z,63.24
2018-08-31T18:21:39.912Z,62.70
2018-08-31T18:24:08.710Z,62.52
2018-08-31T18:26:37.529Z,63.04
2018-08-31T18:29:06.909Z,62.89
2018-08-31T18:31:35.857Z,62.75
2018-08-31T18:34:04.638Z,63.11
2018-08-31T18:36:33.497Z,63.11
2018-08-31T18:39:02.396Z,63.25
2018-08-31T18:41:31.243Z,64.22
2018-08-31T18:44:00.062Z,63.88
2018-08-31T18:46:28.945Z,63.68
2018-08-31T18:48:57.749Z,64.60
2018-08-31T18:51:26.705Z,65.45
2018-08-31T18:53:55.487Z,64.91
2018-08-31T18:56:24.371Z,65.51
2018-08-31T18:58:53.476Z,66.74
2018-08-31T19:01:22.286Z,65.41
2018-08-31T19:03:51.311Z,66.37
2018-08-31T19:06:20.893Z,66.64
2018-08-31T19:08:50.747Z,66.19
2018-08-31T19:11:20.144Z,67.04
2018-08-31T19:13:49.262Z,67.08
2018-08-31T19:16:18.067Z,67.93
2018-08-31T19:18:46.921Z,68.13
2018-08-31T19:21:16.293Z,68.80
2018-08-31T19:23:46.397Z,68.09
2018-08-31T19:26:15.200Z,68.30
2018-08-31T19:28:44.060Z,67.92
2018-08-31T19:31:13.453Z,68.92
2018-08-31T19:33:42.509Z,68.54
2018-08-31T19:36:11.789Z,68.40
2018-08-31T19:38:41.314Z,68.81
2018-08-31T19:41:10.137Z,69.80
2018-08-31T19:43:38.994Z,69.49
2018-08-31T19:46:07.864Z,70.13
2018-08-31T19:48:36.672Z,70.13
2018-08-31T19:51:05.510Z,70.27
2018-08-31T19:53:34.373Z,70.56
2018-08-31T19:56:03.140Z,70.59
2018-08-31T19:58:32.030Z,70.78
2018-08-31T20:01:00.819Z,70.83
2018-08-31T20:03:29.652Z,71.71
2018-08-31T20:05:58.404Z,72.76
2018-08-31T20:08:27.230Z,73.45
2018-08-31T20:10:56.175Z,73.71
2018-08-31T20:13:25.032Z,74.18
2018-08-31T20:15:53.836Z,74.78
2018-08-31T20:18:22.610Z,75.07
2018-08-31T20:20:51.444Z,76.02
2018-08-31T20:23:20.296Z,75.77
2018-08-31T20:25:49.131Z,75.76
2018-08-31T20:28:17.951Z,76.14
2018-08-31T20:30:46.861Z,76.24
2018-08-31T20:33:15.623Z,76.49
2018-08-31T20:35:48.763Z,75.77
2018-08-31T20:38:17.533Z,76.19
2018-08-31T20:40:46.393Z,77.46
2018-08-31T20:43:15.178Z,77.30
2018-08-31T20:45:44.137Z,77.74
2018-08-31T20:48:13.052Z,78.70
2018-08-31T20:50:41.948Z,79.23
2018-08-31T20:53:10.737Z,77.78
2018-08-31T20:55:39.632Z,78.69
2018-08-31T20:58:08.899Z,79.00
2018-08-31T21:00:38.301Z,77.99
2018-08-31T21:03:07.368Z,79.04
2018-08-31T21:05:36.213Z,78.79
2018-08-31T21:08:05.068Z,78.65
2018-08-31T21:10:33.875Z,78.31
2018-08-31T21:13:02.796Z,78.88
2018-08-31T21:15:31.554Z,79.50
2018-08-31T21:18:00.632Z,79.26
2018-08-31T21:20:29.394Z,79.29
2018-08-31T21:22:58.231Z,78.99
2018-08-31T21:25:27.504Z,79.29
2018-08-31T21:27:56.347Z,79.65
2018-08-31T21:30:25.251Z,79.13
2018-08-31T21:32:54.091Z,79.07
2018-08-31T21:35:22.884Z,78.84
2018-08-31T21:37:51.806Z,79.33
2018-08-31T21:40:20.628Z,79.60
2018-08-31T21:42:49.469Z,80.00
2018-08-31T21:45:19.276Z,80.84
2018-08-31T21:47:48.060Z,79.65
2018-08-31T21:50:16.976Z,80.42
2018-08-31T21:52:45.817Z,80.55
2018-08-31T21:55:14.784Z,80.28
2018-08-31T21:57:43.816Z,79.78
2018-08-31T22:00:17.194Z,80.69
2018-08-31T22:02:46.196Z,80.23
2018-08-31T22:05:14.999Z,80.56
2018-08-31T22:07:43.903Z,80.90
2018-08-31T22:10:12.844Z,80.81
2018-08-31T22:12:41.770Z,81.05
2018-08-31T22:15:14.035Z,81.49
2018-08-31T22:17:42.789Z,81.00
2018-08-31T22:20:11.610Z,80.98
2018-08-31T22:22:40.460Z,80.59
2018-08-31T22:25:09.368Z,81.56
2018-08-31T22:27:38.263Z,81.77
2018-08-31T22:30:07.182Z,81.60
2018-08-31T22:32:36.080Z,81.21
2018-08-31T22:35:05.128Z,81.26
2018-08-31T22:37:34.047Z,81.39
2018-08-31T22:40:03.057Z,81.80
2018-08-31T22:42:31.890Z,81.97
2018-08-31T22:45:00.722Z,81.85
2018-08-31T22:47:29.532Z,81.82
2018-08-31T22:49:58.308Z,82.68
2018-08-31T22:52:27.216Z,82.95
2018-08-31T22:54:56.129Z,82.52
2018-08-31T22:57:24.928Z,82.75
2018-08-31T22:59:53.711Z,82.27
2018-08-31T23:02:22.505Z,82.36
2018-08-31T23:04:51.376Z,82.57
2018-08-31T23:07:25.755Z,82.10
2018-08-31T23:09:54.533Z,81.72
2018-08-31T23:12:23.378Z,82.47
2018-08-31T23:14:52.244Z,82.22
2018-08-31T23:17:25.586Z,83.03
2018-08-31T23:19:54.383Z,83.65
2018-08-31T23:22:23.235Z,82.72
2018-08-31T23:24:52.147Z,82.59
2018-08-31T23:27:21.040Z,82.37
2018-08-31T23:29:49.824Z,82.92
2018-08-31T23:32:18.704Z,82.50
2018-08-31T23:34:47.447Z,82.62
2018-08-31T23:37:16.248Z,82.10
2018-08-31T23:39:45.125Z,82.83
2018-08-31T23:42:13.990Z,82.16
2018-08-31T23:44:42.788Z,82.36
2018-08-31T23:47:11.539Z,82.55
2018-08-31T23:49:40.349Z,82.04
2018-08-31T23:52:09.206Z,81.84
2018-08-31T23:54:38.066Z,81.54
2018-08-31T23:57:06.904Z,81.70
2018-08-31T23:59:35.743Z,81.56
